Time;durP1;ratioP1;P1;durP2;ratioP2;P2;SDS_P1;SDS_P2;PMS_P1;PMS_P2;Temp;Humidity;BMP_temperature;BMP_pressure;BME280_temperature;BME280_humidity;BME280_pressure;Samples;Min_cycle;Max_cycle;Signal;HPM_P1;HPM_P2
2021/10/18 00:01:20;;;;;;;;;;;;;;;12.49;40.35;99382.53;5040576;28;19920;-75
2021/10/18 00:03:46;;;;;;;;;;;;;;;12.54;40.34;99391.00;5024639;28;20002;-75
2021/10/18 00:06:12;;;;;;;;;;;;;;;12.49;40.33;99382.53;5024574;28;19920;-75
2021/10/18 00:08:37;;;;;;;;;;;;;;;12.40;40.10;99385.00;5074364;28;19924;-74
2021/10/18 00:11:03;;;;;;;;;;;;;;;12.44;40.52;99376.69;5057197;28;19925;-76
2021/10/18 00:13:30;;;;;;;;;;;;;;;12.50;40.07;99373.50;5040668;28;19927;-76
2021/10/18 00:15:56;;;;;;;;;;;;;;;12.54;40.09;99374.91;5073444;28;19943;-76
2021/10/18 00:18:21;;;;;;;;;;;;;;;12.53;40.19;99374.06;5040309;28;20425;-76
2021/10/18 00:20:47;;;;;;;;;;;;;;;12.56;40.07;99376.50;5023756;28;19925;-75
2021/10/18 00:23:13;;;;;;;;;;;;;;;12.60;39.91;99374.41;5073631;28;19920;-75
2021/10/18 00:25:39;;;;;;;;;;;;;;;12.57;39.72;99377.34;5040343;28;20012;-75
2021/10/18 00:28:04;;;;;;;;;;;;;;;12.58;39.95;99379.03;5023810;28;19920;-76
2021/10/18 00:30:30;;;;;;;;;;;;;;;12.58;40.13;99376.34;5023517;28;19924;-75
2021/10/18 00:32:56;;;;;;;;;;;;;;;12.59;39.66;99384.25;5024210;28;19921;-75
2021/10/18 00:35:21;;;;;;;;;;;;;;;12.61;39.62;99376.09;5040030;28;20276;-76
2021/10/18 00:37:47;;;;;;;;;;;;;;;12.62;39.45;99372.41;5056485;28;19932;-76
2021/10/18 00:40:13;;;;;;;;;;;;;;;12.60;39.70;99369.03;5039933;28;19927;-76
2021/10/18 00:42:39;;;;;;;;;;;;;;;12.59;39.80;99373.53;5023460;28;19927;-75
2021/10/18 00:45:05;;;;;;;;;;;;;;;12.60;39.58;99375.25;5056512;28;20437;-76
2021/10/18 00:47:31;;;;;;;;;;;;;;;12.55;39.59;99372.09;5056556;28;20390;-77
2021/10/18 00:49:56;;;;;;;;;;;;;;;12.51;39.72;99375.19;5024004;28;19966;-75
2021/10/18 00:52:22;;;;;;;;;;;;;;;12.54;39.53;99374.91;5023386;28;19920;-76
2021/10/18 00:54:48;;;;;;;;;;;;;;;12.57;39.76;99363.94;5022991;28;20506;-75
2021/10/18 00:57:14;;;;;;;;;;;;;;;12.47;39.43;99363.03;5023142;28;19947;-76
2021/10/18 00:59:40;;;;;;;;;;;;;;;12.32;39.69;99371.41;5023150;28;20386;-76
2021/10/18 01:02:06;;;;;;;;;;;;;;;12.22;40.17;99359.78;5023079;28;19938;-76
2021/10/18 01:04:31;;;;;;;;;;;;;;;12.07;40.40;99355.75;5023712;28;19920;-76
2021/10/18 01:06:57;;;;;;;;;;;;;;;12.15;40.01;99350.63;5039630;28;20032;-76
2021/10/18 01:09:23;;;;;;;;;;;;;;;12.19;39.80;99354.72;5039476;28;20353;-76
2021/10/18 01:11:48;;;;;;;;;;;;;;;12.17;40.15;99366.53;5055889;28;20337;-75
2021/10/18 01:14:14;;;;;;;;;;;;;;;12.23;39.95;99363.34;5038846;28;19974;-76
2021/10/18 01:16:40;;;;;;;;;;;;;;;12.23;40.07;99360.66;5023274;28;19946;-74
2021/10/18 01:19:09;;;;;;;;;;;;;;;12.27;39.85;99357.59;5023060;28;20019;-77
2021/10/18 01:21:35;;;;;;;;;;;;;;;12.28;39.92;99363.78;5022690;28;19924;-75
2021/10/18 01:24:01;;;;;;;;;;;;;;;12.33;39.79;99365.06;5039248;28;19969;-77
2021/10/18 01:26:26;;;;;;;;;;;;;;;12.37;39.74;99358.50;5022829;28;19928;-77
2021/10/18 01:28:52;;;;;;;;;;;;;;;12.39;39.51;99369.91;5022262;28;19920;-77
2021/10/18 01:31:18;;;;;;;;;;;;;;;12.42;39.26;99359.91;5055268;28;20077;-75
2021/10/18 01:33:44;;;;;;;;;;;;;;;12.43;39.20;99361.59;5022415;28;19924;-76
2021/10/18 01:36:09;;;;;;;;;;;;;;;12.40;39.16;99362.72;5038956;28;20069;-76
2021/10/18 01:38:35;;;;;;;;;;;;;;;12.33;39.13;99362.38;5039047;28;19927;-78
2021/10/18 01:41:01;;;;;;;;;;;;;;;12.33;39.26;99373.13;5039112;28;19920;-75
2021/10/18 01:43:26;;;;;;;;;;;;;;;12.30;38.94;99368.03;5073265;28;19920;-75
2021/10/18 01:45:52;;;;;;;;;;;;;;;12.29;38.85;99360.13;5022084;28;20029;-76
2021/10/18 01:48:18;;;;;;;;;;;;;;;12.18;39.13;99363.72;5038604;28;19978;-76
2021/10/18 01:50:43;;;;;;;;;;;;;;;12.11;39.08;99368.78;5072256;28;19920;-76
2021/10/18 01:53:09;;;;;;;;;;;;;;;12.10;39.04;99375.09;5038712;28;20367;-75
2021/10/18 01:55:35;;;;;;;;;;;;;;;12.19;38.92;99378.00;5038495;28;20002;-76
2021/10/18 01:58:01;;;;;;;;;;;;;;;12.18;39.07;99374.44;5071255;28;19920;-75
2021/10/18 02:00:27;;;;;;;;;;;;;;;12.22;39.26;99365.16;5038612;28;19920;-76
2021/10/18 02:02:53;;;;;;;;;;;;;;;12.27;38.93;99365.63;5055279;28;20473;-76
2021/10/18 02:05:18;;;;;;;;;;;;;;;12.32;38.86;99354.50;5071950;28;19920;-76
2021/10/18 02:07:44;;;;;;;;;;;;;;;12.36;38.88;99351.41;5071767;28;19978;-75
2021/10/18 02:10:10;;;;;;;;;;;;;;;12.38;38.87;99341.41;5071699;28;19927;-75
2021/10/18 02:12:36;;;;;;;;;;;;;;;12.22;38.96;99349.06;5072936;28;19920;-76
2021/10/18 02:15:03;;;;;;;;;;;;;;;12.23;38.95;99350.78;5055670;28;19928;-76
2021/10/18 02:17:29;;;;;;;;;;;;;;;12.09;39.26;99351.13;5055232;28;19920;-75
2021/10/18 02:19:54;;;;;;;;;;;;;;;12.02;39.26;99349.97;5038847;28;19928;-76
2021/10/18 02:22:20;;;;;;;;;;;;;;;11.90;39.40;99342.00;5054923;28;19927;-75
2021/10/18 02:24:46;;;;;;;;;;;;;;;11.96;39.42;99342.44;5071686;28;19924;-76
2021/10/18 02:27:11;;;;;;;;;;;;;;;11.89;39.51;99332.25;5071431;28;19924;-75
2021/10/18 02:29:38;;;;;;;;;;;;;;;11.80;39.66;99327.66;5038507;28;19966;-76
2021/10/18 02:32:04;;;;;;;;;;;;;;;11.87;39.69;99328.84;5037973;28;19920;-77
2021/10/18 02:34:29;;;;;;;;;;;;;;;11.95;39.60;99330.03;5054287;28;20325;-76
2021/10/18 02:36:55;;;;;;;;;;;;;;;11.96;39.46;99329.03;5054576;28;19920;-76
2021/10/18 02:39:21;;;;;;;;;;;;;;;12.00;39.48;99335.81;5021583;28;20394;-76
2021/10/18 02:41:46;;;;;;;;;;;;;;;11.98;39.46;99332.44;5054614;28;20011;-77
2021/10/18 02:44:12;;;;;;;;;;;;;;;12.03;39.32;99338.25;5037530;28;19924;-76
2021/10/18 02:46:38;;;;;;;;;;;;;;;12.02;39.14;99344.59;5021296;28;19924;-76
2021/10/18 02:49:03;;;;;;;;;;;;;;;11.87;39.20;99336.88;5071335;28;19920;-75
2021/10/18 02:51:29;;;;;;;;;;;;;;;11.95;39.08;99327.34;5021394;28;19951;-76
2021/10/18 02:53:55;;;;;;;;;;;;;;;12.03;39.09;99324.84;5072314;28;20383;-77
2021/10/18 02:56:21;;;;;;;;;;;;;;;12.01;38.78;99326.84;5071015;28;19921;-76
2021/10/18 02:58:46;;;;;;;;;;;;;;;11.99;38.80;99331.47;5054341;28;19920;-76
2021/10/18 03:01:12;;;;;;;;;;;;;;;11.85;38.90;99330.84;5037764;28;19927;-77
2021/10/18 03:03:38;;;;;;;;;;;;;;;11.85;38.98;99330.00;5037799;28;19925;-76
2021/10/18 03:06:03;;;;;;;;;;;;;;;11.92;39.01;99331.13;5054576;28;19924;-75
2021/10/18 03:08:29;;;;;;;;;;;;;;;11.98;38.66;99329.78;5021215;28;19989;-76
2021/10/18 03:10:55;;;;;;;;;;;;;;;11.95;38.82;99335.38;5041064;28;19920;-76
2021/10/18 03:13:21;;;;;;;;;;;;;;;12.00;38.55;99333.16;5024752;28;20379;-76
2021/10/18 03:15:46;;;;;;;;;;;;;;;12.04;38.73;99329.25;5058120;28;19920;-76
2021/10/18 03:18:12;;;;;;;;;;;;;;;12.03;38.20;99322.19;5041454;28;19927;-76
2021/10/18 03:20:38;;;;;;;;;;;;;;;12.06;38.38;99312.03;5041025;28;19993;-76
2021/10/18 03:23:03;;;;;;;;;;;;;;;12.09;38.26;99319.81;5041340;28;20027;-74
2021/10/18 03:25:34;;;;;;;;;;;;;;;12.12;37.93;99306.16;5074541;28;20283;-76
2021/10/18 03:28:04;;;;;;;;;;;;;;;12.13;37.92;99323.94;5074990;28;19927;-76
2021/10/18 03:30:30;;;;;;;;;;;;;;;12.03;38.21;99316.81;5074332;28;19920;-75
2021/10/18 03:32:56;;;;;;;;;;;;;;;11.94;38.22;99322.97;5041239;28;19920;-76
2021/10/18 03:35:22;;;;;;;;;;;;;;;11.85;38.23;99357.63;5073862;28;19943;-75
2021/10/18 03:37:47;;;;;;;;;;;;;;;11.89;38.10;99337.63;5024033;28;19981;-76
2021/10/18 03:40:16;;;;;;;;;;;;;;;11.98;37.97;99340.50;5042008;28;19921;-76
2021/10/18 03:42:42;;;;;;;;;;;;;;;12.07;37.85;99334.31;5057090;28;19920;-75
2021/10/18 03:45:09;;;;;;;;;;;;;;;12.18;37.82;99330.72;5073824;28;19924;-76
2021/10/18 03:47:35;;;;;;;;;;;;;;;12.30;38.36;99345.75;5024214;28;20011;-76
2021/10/18 03:50:01;;;;;;;;;;;;;;;12.34;37.71;99342.66;5040234;28;20018;-77
2021/10/18 03:52:28;;;;;;;;;;;;;;;12.44;37.53;99347.22;5024646;28;19928;-75
2021/10/18 03:54:54;;;;;;;;;;;;;;;12.48;37.13;99337.91;5023786;28;19969;-76
2021/10/18 03:57:20;;;;;;;;;;;;;;;12.51;36.86;99327.75;5040918;28;19928;-76
2021/10/18 03:59:45;;;;;;;;;;;;;;;12.64;36.86;99346.31;5090465;28;20417;-76
2021/10/18 04:02:11;;;;;;;;;;;;;;;12.65;36.89;99339.97;5040037;28;19927;-76
2021/10/18 04:04:37;;;;;;;;;;;;;;;12.69;36.37;99336.03;5040326;28;20041;-75
2021/10/18 04:07:02;;;;;;;;;;;;;;;12.59;36.21;99324.41;5073417;28;20305;-74
2021/10/18 04:09:28;;;;;;;;;;;;;;;12.61;36.24;99328.66;5073353;28;20375;-76
2021/10/18 04:11:54;;;;;;;;;;;;;;;12.58;36.34;99328.06;5056338;28;20023;-77
2021/10/18 04:14:20;;;;;;;;;;;;;;;12.75;36.36;99319.41;5040200;28;19920;-78
2021/10/18 04:16:45;;;;;;;;;;;;;;;12.81;35.97;99323.34;5068215;28;19927;-76
2021/10/18 04:19:12;;;;;;;;;;;;;;;12.82;36.23;99325.88;5060042;28;20390;-75
2021/10/18 04:21:37;;;;;;;;;;;;;;;12.96;35.88;99321.97;5075606;28;19931;-77
2021/10/18 04:24:03;;;;;;;;;;;;;;;13.06;35.73;99324.69;5059260;28;19954;-76
2021/10/18 04:26:29;;;;;;;;;;;;;;;13.17;35.33;99329.06;5059749;28;19927;-75
2021/10/18 04:28:55;;;;;;;;;;;;;;;13.25;35.00;99332.78;5059561;28;19920;-75
2021/10/18 04:31:21;;;;;;;;;;;;;;;13.19;34.93;99337.81;5076375;28;20243;-76
2021/10/18 04:33:47;;;;;;;;;;;;;;;13.21;35.16;99330.50;5093067;28;19927;-77
2021/10/18 04:36:12;;;;;;;;;;;;;;;13.35;34.58;99333.63;5059530;28;19942;-74
2021/10/18 04:38:39;;;;;;;;;;;;;;;13.30;34.81;99341.25;5059916;28;19935;-77
2021/10/18 04:41:05;;;;;;;;;;;;;;;13.33;34.84;99340.97;5059630;28;20294;-76
2021/10/18 04:43:31;;;;;;;;;;;;;;;13.34;34.94;99342.66;5076034;28;19959;-76
2021/10/18 04:45:56;;;;;;;;;;;;;;;13.50;34.69;99341.25;5075898;28;20366;-76
2021/10/18 04:48:22;;;;;;;;;;;;;;;13.49;34.82;99339.56;5075865;28;20026;-75
2021/10/18 04:50:48;;;;;;;;;;;;;;;13.62;34.85;99344.66;5059047;28;19928;-75
2021/10/18 04:53:13;;;;;;;;;;;;;;;13.69;34.56;99341.28;5092399;28;19920;-76
2021/10/18 04:55:39;;;;;;;;;;;;;;;13.79;34.68;99342.09;5076060;28;20022;-76
2021/10/18 04:58:05;;;;;;;;;;;;;;;13.89;34.63;99349.31;5059059;28;19920;-76
2021/10/18 05:00:35;;;;;;;;;;;;;;;13.91;34.06;99345.47;5058919;28;19920;-78
2021/10/18 05:03:01;;;;;;;;;;;;;;;13.88;34.13;99340.41;5076580;28;19981;-76
2021/10/18 05:05:27;;;;;;;;;;;;;;;13.97;34.32;99349.44;5093719;28;19966;-76
2021/10/18 05:08:19;;;;;;;;;;;;;;;14.10;33.77;99341.88;5074538;28;19920;-77
2021/10/18 05:10:47;;;;;;;;;;;;;;;14.24;33.99;99332.53;5053354;28;19966;-75
2021/10/18 05:13:15;;;;;;;;;;;;;;;14.34;34.05;99320.75;5090391;28;20474;-75
2021/10/18 05:15:41;;;;;;;;;;;;;;;14.49;33.54;99333.72;5073776;28;19927;-76
2021/10/18 05:18:09;;;;;;;;;;;;;;;14.41;33.55;99344.38;5055904;28;19924;-77
2021/10/18 05:20:37;;;;;;;;;;;;;;;14.31;32.81;99322.88;5073148;28;19920;-78
2021/10/18 05:23:03;;;;;;;;;;;;;;;14.36;32.70;99317.88;5057277;28;19923;-76
2021/10/18 05:25:29;;;;;;;;;;;;;;;14.26;32.57;99328.69;5056334;28;19920;-73
2021/10/18 05:27:54;;;;;;;;;;;;;;;14.23;32.82;99339.75;5090081;28;19924;-78
2021/10/18 05:30:24;;;;;;;;;;;;;;;14.08;32.30;99336.66;5056317;28;19920;-77
2021/10/18 05:32:53;;;;;;;;;;;;;;;14.17;32.37;99334.94;5055571;28;19926;-76
2021/10/18 05:35:18;;;;;;;;;;;;;;;14.26;32.52;99336.75;5056855;28;19931;-77
2021/10/18 05:37:44;;;;;;;;;;;;;;;14.34;32.50;99336.88;5056224;28;19920;-77
2021/10/18 05:40:11;;;;;;;;;;;;;;;14.38;32.24;99348.19;5056687;28;19924;-76
2021/10/18 05:42:37;;;;;;;;;;;;;;;14.48;32.41;99334.69;5056429;28;19920;-77
2021/10/18 05:45:04;;;;;;;;;;;;;;;14.56;31.45;99326.78;5039760;28;19924;-76
2021/10/18 05:47:31;;;;;;;;;;;;;;;14.77;31.66;99323.81;5056317;28;19973;-76
2021/10/18 05:49:59;;;;;;;;;;;;;;;14.78;31.60;99328.19;5091559;28;20015;-76
2021/10/18 05:52:27;;;;;;;;;;;;;;;14.72;31.56;99313.53;5073339;28;19931;-76
2021/10/18 05:54:53;;;;;;;;;;;;;;;14.81;31.76;99304.53;5056253;28;19927;-77
2021/10/18 05:57:18;;;;;;;;;;;;;;;14.84;31.72;99310.63;5039015;28;19920;-77
2021/10/18 05:59:44;;;;;;;;;;;;;;;14.82;31.82;99306.25;5063984;28;19920;-77
2021/10/18 06:02:10;;;;;;;;;;;;;;;14.82;32.02;99306.25;5066101;28;20012;-77
2021/10/18 06:04:40;;;;;;;;;;;;;;;14.85;31.63;99301.53;5073191;28;19927;-78
2021/10/18 06:07:06;;;;;;;;;;;;;;;14.81;31.49;99301.84;5056089;28;20014;-76
2021/10/18 06:09:31;;;;;;;;;;;;;;;14.76;31.48;99289.84;5056235;28;20019;-77
2021/10/18 06:11:57;;;;;;;;;;;;;;;14.81;31.25;99296.47;5052019;28;20496;-77
2021/10/18 06:14:23;;;;;;;;;;;;;;;14.71;31.65;99286.78;5039482;28;19920;-78
2021/10/18 06:16:49;;;;;;;;;;;;;;;14.74;31.48;99287.31;5057427;28;19950;-78
2021/10/18 06:19:15;;;;;;;;;;;;;;;14.91;31.40;99290.19;5061477;28;19924;-75
2021/10/18 06:21:42;;;;;;;;;;;;;;;14.95;30.89;99292.41;5062531;28;19943;-78
2021/10/18 06:24:12;;;;;;;;;;;;;;;14.92;30.60;99286.50;5044263;28;20009;-77
2021/10/18 06:26:38;;;;;;;;;;;;;;;15.07;31.13;99293.88;5065798;28;19927;-80
2021/10/18 06:29:06;;;;;;;;;;;;;;;15.00;30.88;99294.66;5064826;28;19920;-78
2021/10/18 06:31:36;;;;;;;;;;;;;;;15.00;30.84;99283.88;5075313;28;20413;-78
2021/10/18 06:34:03;;;;;;;;;;;;;;;15.07;30.94;99284.97;5089882;28;20302;-77
2021/10/18 06:36:30;;;;;;;;;;;;;;;15.01;31.09;99286.44;5056352;28;20401;-77
2021/10/18 06:38:58;;;;;;;;;;;;;;;14.94;31.02;99274.59;5073014;28;19924;-77
2021/10/18 06:41:26;;;;;;;;;;;;;;;14.70;31.21;99277.84;5039736;28;19963;-77
2021/10/18 06:43:52;;;;;;;;;;;;;;;14.79;31.11;99279.63;5073643;28;19920;-77
2021/10/18 06:46:18;;;;;;;;;;;;;;;14.75;31.21;99278.25;5060611;28;19947;-77
2021/10/18 06:48:44;;;;;;;;;;;;;;;14.62;31.28;99280.44;5059814;28;19920;-77
2021/10/18 06:51:10;;;;;;;;;;;;;;;14.43;32.16;99283.19;5057791;28;19955;-81
2021/10/18 06:53:38;;;;;;;;;;;;;;;14.57;33.87;99288.13;5042935;28;19956;-78
2021/10/18 06:56:06;;;;;;;;;;;;;;;14.99;37.12;99274.13;5056270;28;19925;-78
2021/10/18 06:58:32;;;;;;;;;;;;;;;15.08;32.15;99278.56;5023585;28;20023;-80
2021/10/18 07:00:59;;;;;;;;;;;;;;;15.02;31.65;99282.72;5041665;28;20433;-79
2021/10/18 07:03:24;;;;;;;;;;;;;;;14.99;31.56;99276.81;5059450;28;19920;-81
2021/10/18 07:05:53;;;;;;;;;;;;;;;15.15;32.91;99282.34;5059413;28;19920;-81
2021/10/18 07:08:19;;;;;;;;;;;;;;;15.43;31.15;99276.91;5076096;28;19920;-79
2021/10/18 07:10:46;;;;;;;;;;;;;;;15.49;30.31;99281.63;5059221;28;20065;-78
2021/10/18 07:13:12;;;;;;;;;;;;;;;15.41;30.55;99273.50;5077139;28;20330;-76
2021/10/18 07:15:37;;;;;;;;;;;;;;;15.30;31.02;99274.56;5061199;28;19924;-76
2021/10/18 07:18:03;;;;;;;;;;;;;;;15.43;30.94;99275.03;5061621;28;20370;-76
2021/10/18 07:20:29;;;;;;;;;;;;;;;15.52;30.41;99278.63;5060584;28;20015;-77
2021/10/18 07:22:58;;;;;;;;;;;;;;;15.57;30.36;99270.97;5093702;28;19920;-76
2021/10/18 07:25:24;;;;;;;;;;;;;;;15.63;30.32;99270.31;5060620;28;19924;-76
2021/10/18 07:27:50;;;;;;;;;;;;;;;15.53;30.30;99273.13;5059942;28;19981;-77
2021/10/18 07:30:16;;;;;;;;;;;;;;;15.39;30.38;99275.50;5077245;28;19924;-75
2021/10/18 07:32:44;;;;;;;;;;;;;;;15.41;30.75;99260.03;5060196;28;20297;-77
2021/10/18 07:35:11;;;;;;;;;;;;;;;15.40;30.43;99266.44;5060324;28;19923;-77
2021/10/18 07:37:36;;;;;;;;;;;;;;;15.40;30.60;99259.19;5060277;28;19919;-78
2021/10/18 07:40:03;;;;;;;;;;;;;;;15.36;30.67;99259.66;5060066;28;19919;-78
2021/10/18 07:42:28;;;;;;;;;;;;;;;15.30;30.41;99253.88;5076877;28;19969;-76
2021/10/18 07:44:54;;;;;;;;;;;;;;;15.32;30.46;99260.97;5076721;28;19920;-76
2021/10/18 07:47:21;;;;;;;;;;;;;;;15.36;30.65;99251.56;5060483;28;19974;-75
2021/10/18 07:49:47;;;;;;;;;;;;;;;15.42;30.38;99256.31;5060128;28;19963;-76
2021/10/18 07:52:13;;;;;;;;;;;;;;;15.45;30.42;99261.41;5060061;28;19970;-77
2021/10/18 07:54:39;;;;;;;;;;;;;;;15.44;30.29;99254.34;5076823;28;19920;-77
2021/10/18 07:57:05;;;;;;;;;;;;;;;15.54;30.77;99255.94;5090709;28;20445;-77
2021/10/18 07:59:31;;;;;;;;;;;;;;;15.70;30.23;99255.25;5057792;28;20069;-76
2021/10/18 08:01:57;;;;;;;;;;;;;;;15.76;30.18;99254.63;5057788;28;20057;-77
2021/10/18 08:04:23;;;;;;;;;;;;;;;15.83;30.06;99253.97;5041580;28;19926;-77
2021/10/18 08:06:48;;;;;;;;;;;;;;;15.90;30.24;99249.63;5057973;28;20372;-75
2021/10/18 08:09:14;;;;;;;;;;;;;;;16.10;29.87;99251.13;5057869;28;19942;-77
2021/10/18 08:11:41;;;;;;;;;;;;;;;16.13;29.55;99237.28;5058282;28;19926;-77
2021/10/18 08:14:08;;;;;;;;;;;;;;;16.31;29.51;99241.78;5091714;28;19924;-77
2021/10/18 08:16:35;;;;;;;;;;;;;;;16.36;29.67;99234.03;5074860;28;19920;-78
2021/10/18 08:19:02;;;;;;;;;;;;;;;16.22;29.42;99230.09;5057917;28;20378;-76
2021/10/18 08:21:32;;;;;;;;;;;;;;;16.21;29.53;99231.97;5074318;28;19962;-76
2021/10/18 08:24:00;;;;;;;;;;;;;;;16.22;29.84;99225.56;5091316;28;19967;-78
2021/10/18 08:26:27;;;;;;;;;;;;;;;16.33;29.29;99234.38;5074221;28;19943;-79
2021/10/18 08:28:54;;;;;;;;;;;;;;;16.43;29.29;99224.28;5057763;28;20603;-77
2021/10/18 08:31:23;;;;;;;;;;;;;;;16.47;28.89;99220.25;5057822;28;19919;-77
2021/10/18 08:33:50;;;;;;;;;;;;;;;16.47;29.23;99222.94;5074871;28;19920;-78
2021/10/18 08:36:18;;;;;;;;;;;;;;;16.68;28.84;99217.13;5074962;28;19924;-77
2021/10/18 08:38:48;;;;;;;;;;;;;;;16.79;28.41;99224.09;5058173;28;19920;-77
2021/10/18 08:41:21;;;;;;;;;;;;;;;16.79;28.71;99221.38;5058138;28;19920;-77
2021/10/18 08:46:23;;;;;;;;;;;;;;;16.70;28.31;99226.75;5075296;28;19981;-77
2021/10/18 08:48:50;;;;;;;;;;;;;;;16.74;28.18;99220.03;5057642;28;20286;-77
2021/10/18 08:51:22;;;;;;;;;;;;;;;16.74;28.31;99228.13;5057436;28;19924;-77
2021/10/18 08:53:49;;;;;;;;;;;;;;;16.65;28.24;99233.63;5074141;28;19927;-76
2021/10/18 08:56:17;;;;;;;;;;;;;;;16.62;28.20;99234.78;5074056;28;20447;-76
2021/10/18 08:58:44;;;;;;;;;;;;;;;16.70;28.35;99221.34;5074160;28;19920;-76
2021/10/18 09:01:10;;;;;;;;;;;;;;;16.77;28.22;99218.84;5057020;28;19927;-76
2021/10/18 09:03:36;;;;;;;;;;;;;;;16.75;28.28;99223.56;5040790;28;19920;-77
2021/10/18 09:06:14;;;;;;;;;;;;;;;16.78;28.43;99208.91;5056931;28;19981;-77
2021/10/18 09:08:41;;;;;;;;;;;;;;;16.80;28.51;99206.88;5073559;28;19920;-78
2021/10/18 09:11:10;;;;;;;;;;;;;;;16.73;28.16;99204.81;5056262;28;19968;-78
2021/10/18 09:13:41;;;;;;;;;;;;;;;16.86;28.61;99198.97;5056956;28;20033;-78
2021/10/18 09:16:11;;;;;;;;;;;;;;;16.90;28.40;99204.88;5040485;28;20283;-77
2021/10/18 09:18:38;;;;;;;;;;;;;;;16.90;28.25;99191.38;5073879;28;19978;-77
2021/10/18 09:21:04;;;;;;;;;;;;;;;16.96;28.35;99190.69;5056686;28;19965;-76
2021/10/18 09:23:40;;;;;;;;;;;;;;;17.02;28.02;99183.78;5056927;28;20010;-76
2021/10/18 09:26:09;;;;;;;;;;;;;;;17.04;28.40;99181.75;5058291;28;20018;-77
2021/10/18 09:28:36;;;;;;;;;;;;;;;17.04;28.49;99184.44;5057021;28;19931;-77
2021/10/18 09:31:03;;;;;;;;;;;;;;;16.96;28.46;99178.06;5056516;28;19923;-76
2021/10/18 09:36:42;;;;;;;;;;;;;;;17.12;28.46;99171.81;5090611;28;20421;-78
2021/10/18 09:39:16;;;;;;;;;;;;;;;17.30;28.09;99160.84;5073272;28;19982;-76
2021/10/18 09:41:46;;;;;;;;;;;;;;;17.41;28.17;99165.03;5073405;28;19920;-76
2021/10/18 09:44:28;;;;;;;;;;;;;;;17.36;28.14;99157.44;5040330;28;20410;-76
2021/10/18 09:47:33;;;;;;;;;;;;;;;17.38;27.98;99162.69;5089892;28;19920;-76
2021/10/18 10:51:04;;;;;;;;;;;;;;;18.06;26.30;99105.41;5075740;28;20000;-76
2021/10/18 10:53:43;;;;;;;;;;;;;;;17.98;26.71;99096.47;5076913;28;19920;-76
2021/10/18 10:56:18;;;;;;;;;;;;;;;17.99;26.55;99107.13;5058038;28;19919;-76
2021/10/18 10:58:51;;;;;;;;;;;;;;;17.94;26.50;99106.78;5096854;28;19920;-76
2021/10/18 11:01:35;;;;;;;;;;;;;;;17.80;26.79;99104.84;5043349;28;19920;-77
2021/10/18 11:04:01;;;;;;;;;;;;;;;17.57;27.20;99112.81;5091966;28;20014;-76
2021/10/18 11:06:28;;;;;;;;;;;;;;;17.39;27.31;99100.38;5059698;28;19956;-77
2021/10/18 11:08:54;;;;;;;;;;;;;;;17.24;27.39;99108.31;5075572;28;19927;-76
2021/10/18 11:11:22;;;;;;;;;;;;;;;17.27;27.49;99104.44;5069281;28;19924;-75
2021/10/18 11:13:54;;;;;;;;;;;;;;;17.28;27.38;99094.47;5067018;28;19924;-77
2021/10/18 11:16:30;;;;;;;;;;;;;;;17.26;27.27;99086.53;5053667;28;21359;-76
2021/10/18 11:18:56;;;;;;;;;;;;;;;17.19;27.72;99064.78;5070028;28;20008;-75
2021/10/18 11:21:23;;;;;;;;;;;;;;;17.31;27.57;99056.31;5052066;28;20306;-76
2021/10/18 11:23:53;;;;;;;;;;;;;;;17.44;27.25;99053.91;5052163;28;19930;-77
2021/10/18 11:26:18;;;;;;;;;;;;;;;17.52;27.50;99050.31;5061100;28;20400;-77
2021/10/18 11:28:44;;;;;;;;;;;;;;;17.78;27.01;99050.09;5044641;28;19919;-77
2021/10/18 11:31:10;;;;;;;;;;;;;;;17.67;27.05;99062.94;5077158;28;20011;-78
2021/10/18 11:33:36;;;;;;;;;;;;;;;17.53;27.02;99060.97;5061038;28;19920;-78
2021/10/18 11:36:17;;;;;;;;;;;;;;;17.50;27.24;99072.13;5061278;28;20301;-78
2021/10/18 11:38:45;;;;;;;;;;;;;;;17.39;27.27;99075.22;5061607;28;20294;-77
2021/10/18 11:41:10;;;;;;;;;;;;;;;17.23;27.19;99071.53;5061149;28;19920;-81
2021/10/18 11:43:36;;;;;;;;;;;;;;;17.21;27.23;99068.16;5060540;28;19920;-75
2021/10/18 11:46:02;;;;;;;;;;;;;;;17.18;27.27;99073.88;5060892;28;19973;-78
2021/10/18 11:48:29;;;;;;;;;;;;;;;17.13;27.38;99078.13;5077353;28;19923;-76
2021/10/18 11:50:56;;;;;;;;;;;;;;;17.09;27.54;99077.63;5060563;28;19920;-77
2021/10/18 11:53:23;;;;;;;;;;;;;;;17.17;27.81;99068.66;5060597;28;19956;-78
2021/10/18 11:55:53;;;;;;;;;;;;;;;17.19;27.37;99070.19;5077073;28;19959;-77
2021/10/18 11:58:22;;;;;;;;;;;;;;;17.23;27.34;99079.63;5077370;28;20355;-76
2021/10/18 12:00:54;;;;;;;;;;;;;;;17.24;27.48;99067.81;5060305;28;20423;-77
2021/10/18 12:03:21;;;;;;;;;;;;;;;17.28;27.45;99075.56;5043745;28;19924;-75
2021/10/18 12:05:48;;;;;;;;;;;;;;;17.14;27.28;99061.75;5093764;28;19927;-76
2021/10/18 12:08:15;;;;;;;;;;;;;;;17.18;27.34;99052.28;5060044;28;20050;-75
2021/10/18 12:10:41;;;;;;;;;;;;;;;17.21;27.60;99046.53;5059596;28;19919;-77
2021/10/18 12:13:08;;;;;;;;;;;;;;;17.30;27.54;99046.50;5089311;28;19920;-76
2021/10/18 12:15:36;;;;;;;;;;;;;;;17.28;27.40;99037.75;5039999;28;20019;-74
2021/10/18 12:18:02;;;;;;;;;;;;;;;17.12;27.23;99035.94;5076811;28;20371;-78
2021/10/18 12:20:28;;;;;;;;;;;;;;;17.08;27.29;99024.63;5076674;28;19924;-76
2021/10/18 12:22:58;;;;;;;;;;;;;;;17.07;27.01;99017.53;5054746;28;20019;-76
2021/10/18 12:25:23;;;;;;;;;;;;;;;17.01;26.75;99010.13;5039801;28;20379;-76
2021/10/18 12:27:49;;;;;;;;;;;;;;;16.97;26.87;99014.19;5056324;28;19973;-77
2021/10/18 12:30:34;;;;;;;;;;;;;;;16.99;26.79;99025.66;5056187;28;20302;-76
2021/10/18 12:33:06;;;;;;;;;;;;;;;16.74;26.58;99023.00;5039774;28;19920;-75
2021/10/18 12:35:32;;;;;;;;;;;;;;;16.61;27.17;99036.13;5058390;28;19920;-75
2021/10/18 12:37:57;;;;;;;;;;;;;;;16.52;27.19;99029.88;5057920;28;19920;-76
2021/10/18 12:40:23;;;;;;;;;;;;;;;16.51;27.27;99038.13;5055728;28;19920;-76
2021/10/18 12:42:49;;;;;;;;;;;;;;;16.39;27.59;99040.31;5055828;28;19920;-76
2021/10/18 12:45:16;;;;;;;;;;;;;;;16.49;27.43;99034.78;5056000;28;19920;-76
2021/10/18 12:47:47;;;;;;;;;;;;;;;16.43;27.54;99025.47;5038864;28;19920;-77
2021/10/18 12:50:15;;;;;;;;;;;;;;;16.45;27.66;99017.22;5039227;28;19920;-76
2021/10/18 12:52:42;;;;;;;;;;;;;;;16.41;27.64;99010.50;5039603;28;19981;-75
2021/10/18 12:55:24;;;;;;;;;;;;;;;16.34;28.17;99020.25;5040619;28;20123;-82
2021/10/18 12:57:54;;;;;;;;;;;;;;;16.29;28.04;99007.28;5076234;28;19968;-80
2021/10/18 13:00:27;;;;;;;;;;;;;;;16.21;28.14;99004.56;5058866;28;20422;-79
2021/10/18 13:02:57;;;;;;;;;;;;;;;16.15;28.45;99011.47;5075435;28;19920;-77
2021/10/18 13:05:30;;;;;;;;;;;;;;;16.08;28.72;99004.22;5058895;28;19920;-78
2021/10/18 13:07:57;;;;;;;;;;;;;;;15.98;28.77;98998.97;5075939;28;19945;-75
2021/10/18 13:10:24;;;;;;;;;;;;;;;15.97;28.93;98999.97;5055888;28;19920;-77
2021/10/18 13:12:49;;;;;;;;;;;;;;;15.96;28.85;99001.00;5038591;28;19926;-80
2021/10/18 13:15:16;;;;;;;;;;;;;;;15.90;28.95;99005.19;5038796;28;19920;-78
2021/10/18 13:17:43;;;;;;;;;;;;;;;15.88;29.21;99003.69;5039241;28;19920;-76
2021/10/18 13:20:09;;;;;;;;;;;;;;;15.90;28.95;99005.19;5022564;28;19924;-76
2021/10/18 13:22:35;;;;;;;;;;;;;;;15.78;29.09;99004.66;5038424;28;19955;-76
2021/10/18 13:25:01;;;;;;;;;;;;;;;15.78;28.93;98996.56;5071324;28;19924;-76
2021/10/18 13:27:27;;;;;;;;;;;;;;;15.78;29.08;99003.81;5070606;28;19921;-81
2021/10/18 13:29:52;;;;;;;;;;;;;;;15.74;29.04;98992.53;5054253;28;19959;-77
2021/10/18 13:32:18;;;;;;;;;;;;;;;15.75;29.03;98993.34;5054737;28;19920;-77
2021/10/18 13:34:44;;;;;;;;;;;;;;;15.76;28.97;98992.38;5070017;28;19920;-77
2021/10/18 13:37:11;;;;;;;;;;;;;;;15.72;29.29;98993.69;5052333;28;19920;-78
2021/10/18 13:39:41;;;;;;;;;;;;;;;15.73;29.52;98996.22;5052003;28;20275;-79
2021/10/18 13:42:07;;;;;;;;;;;;;;;15.96;34.88;99001.00;5035339;28;19950;-79
2021/10/18 13:44:36;;;;;;;;;;;;;;;16.14;31.10;98993.63;5052088;28;19920;-77
2021/10/18 13:47:02;;;;;;;;;;;;;;;16.17;28.48;98990.59;5035611;28;19920;-77
2021/10/18 13:49:28;;;;;;;;;;;;;;;16.12;28.22;98990.22;5051723;28;19920;-75
2021/10/18 13:51:54;;;;;;;;;;;;;;;16.06;28.20;98999.00;5036651;28;19969;-75
2021/10/18 13:54:19;;;;;;;;;;;;;;;15.99;28.39;99011.47;5021900;28;20010;-76